sensor_id;sensor_type;location;lat;lon;timestamp;P1;durP1;ratioP1;P2;durP2;ratioP2
45136;SDS011;30894;51.740;19.498;2023-07-08T00:01:14;8.40;;;3.67;;
45136;SDS011;30894;51.740;19.498;2023-07-08T00:03:46;10.23;;;3.57;;
45136;SDS011;30894;51.740;19.498;2023-07-08T00:06:25;8.57;;;3.78;;
45136;SDS011;30894;51.740;19.498;2023-07-08T00:08:53;10.10;;;3.67;;
45136;SDS011;30894;51.740;19.498;2023-07-08T00:11:20;8.07;;;3.53;;
45136;SDS011;30894;51.740;19.498;2023-07-08T00:13:46;9.05;;;3.47;;
45136;SDS011;30894;51.740;19.498;2023-07-08T00:16:13;6.97;;;3.78;;
45136;SDS011;30894;51.740;19.498;2023-07-08T00:18:42;7.32;;;3.08;;
45136;SDS011;30894;51.740;19.498;2023-07-08T00:21:09;9.02;;;3.42;;
45136;SDS011;30894;51.740;19.498;2023-07-08T00:23:47;8.38;;;3.35;;
45136;SDS011;30894;51.740;19.498;2023-07-08T00:26:26;6.55;;;3.15;;
45136;SDS011;30894;51.740;19.498;2023-07-08T00:28:56;8.80;;;3.15;;
45136;SDS011;30894;51.740;19.498;2023-07-08T00:31:22;5.95;;;2.83;;
45136;SDS011;30894;51.740;19.498;2023-07-08T00:33:51;5.28;;;2.90;;
45136;SDS011;30894;51.740;19.498;2023-07-08T00:36:22;5.72;;;3.03;;
45136;SDS011;30894;51.740;19.498;2023-07-08T00:38:50;4.38;;;2.97;;
45136;SDS011;30894;51.740;19.498;2023-07-08T00:41:18;8.50;;;3.58;;
45136;SDS011;30894;51.740;19.498;2023-07-08T00:43:55;9.77;;;3.60;;
45136;SDS011;30894;51.740;19.498;2023-07-08T00:48:56;6.45;;;2.55;;
45136;SDS011;30894;51.740;19.498;2023-07-08T00:51:33;9.10;;;3.03;;
45136;SDS011;30894;51.740;19.498;2023-07-08T00:54:03;6.00;;;2.85;;
45136;SDS011;30894;51.740;19.498;2023-07-08T00:56:42;7.00;;;2.40;;
45136;SDS011;30894;51.740;19.498;2023-07-08T00:59:32;5.85;;;2.65;;
45136;SDS011;30894;51.740;19.498;2023-07-08T01:02:05;8.48;;;3.30;;
45136;SDS011;30894;51.740;19.498;2023-07-08T01:04:36;4.80;;;2.42;;
45136;SDS011;30894;51.740;19.498;2023-07-08T01:07:09;6.03;;;2.55;;
45136;SDS011;30894;51.740;19.498;2023-07-08T01:09:37;7.72;;;3.13;;
45136;SDS011;30894;51.740;19.498;2023-07-08T01:12:14;5.78;;;2.53;;
45136;SDS011;30894;51.740;19.498;2023-07-08T01:14:47;6.38;;;3.15;;
45136;SDS011;30894;51.740;19.498;2023-07-08T01:17:14;7.53;;;3.00;;
45136;SDS011;30894;51.740;19.498;2023-07-08T01:19:40;8.68;;;3.20;;
45136;SDS011;30894;51.740;19.498;2023-07-08T01:22:08;6.18;;;2.50;;
45136;SDS011;30894;51.740;19.498;2023-07-08T01:24:35;7.30;;;2.92;;
45136;SDS011;30894;51.740;19.498;2023-07-08T01:27:07;8.00;;;2.50;;
45136;SDS011;30894;51.740;19.498;2023-07-08T01:29:37;7.93;;;3.05;;
45136;SDS011;30894;51.740;19.498;2023-07-08T01:32:03;5.13;;;2.17;;
45136;SDS011;30894;51.740;19.498;2023-07-08T01:34:33;5.30;;;2.58;;
45136;SDS011;30894;51.740;19.498;2023-07-08T01:37:03;4.95;;;2.50;;
45136;SDS011;30894;51.740;19.498;2023-07-08T01:39:31;5.20;;;2.60;;
45136;SDS011;30894;51.740;19.498;2023-07-08T01:41:58;4.13;;;2.28;;
45136;SDS011;30894;51.740;19.498;2023-07-08T01:44:32;3.85;;;2.60;;
45136;SDS011;30894;51.740;19.498;2023-07-08T01:47:02;6.53;;;3.05;;
45136;SDS011;30894;51.740;19.498;2023-07-08T01:49:36;6.65;;;2.80;;
45136;SDS011;30894;51.740;19.498;2023-07-08T01:52:05;4.20;;;2.40;;
45136;SDS011;30894;51.740;19.498;2023-07-08T01:54:32;6.50;;;2.53;;
45136;SDS011;30894;51.740;19.498;2023-07-08T01:56:58;9.38;;;2.90;;
45136;SDS011;30894;51.740;19.498;2023-07-08T01:59:26;5.78;;;2.28;;
45136;SDS011;30894;51.740;19.498;2023-07-08T02:01:53;5.35;;;2.50;;
45136;SDS011;30894;51.740;19.498;2023-07-08T02:04:22;8.57;;;3.25;;
45136;SDS011;30894;51.740;19.498;2023-07-08T02:06:54;7.95;;;2.85;;
45136;SDS011;30894;51.740;19.498;2023-07-08T02:09:22;5.35;;;2.55;;
45136;SDS011;30894;51.740;19.498;2023-07-08T02:11:50;4.68;;;2.40;;
45136;SDS011;30894;51.740;19.498;2023-07-08T02:14:19;3.78;;;2.60;;
45136;SDS011;30894;51.740;19.498;2023-07-08T02:16:46;4.15;;;2.40;;
45136;SDS011;30894;51.740;19.498;2023-07-08T02:19:12;3.25;;;2.03;;
45136;SDS011;30894;51.740;19.498;2023-07-08T02:21:39;3.13;;;2.42;;
45136;SDS011;30894;51.740;19.498;2023-07-08T02:24:05;5.07;;;2.47;;
45136;SDS011;30894;51.740;19.498;2023-07-08T02:26:32;6.78;;;2.60;;
45136;SDS011;30894;51.740;19.498;2023-07-08T02:28:59;5.97;;;2.95;;
45136;SDS011;30894;51.740;19.498;2023-07-08T02:31:25;5.40;;;2.78;;
45136;SDS011;30894;51.740;19.498;2023-07-08T02:33:52;4.38;;;2.95;;
45136;SDS011;30894;51.740;19.498;2023-07-08T02:36:19;5.00;;;2.72;;
45136;SDS011;30894;51.740;19.498;2023-07-08T02:38:46;6.65;;;2.60;;
45136;SDS011;30894;51.740;19.498;2023-07-08T02:41:12;6.03;;;2.88;;
45136;SDS011;30894;51.740;19.498;2023-07-08T02:43:38;5.85;;;2.85;;
45136;SDS011;30894;51.740;19.498;2023-07-08T02:46:05;5.18;;;2.67;;
45136;SDS011;30894;51.740;19.498;2023-07-08T02:48:31;4.72;;;2.75;;
45136;SDS011;30894;51.740;19.498;2023-07-08T02:51:00;4.30;;;2.80;;
45136;SDS011;30894;51.740;19.498;2023-07-08T02:53:28;6.72;;;2.88;;
45136;SDS011;30894;51.740;19.498;2023-07-08T02:55:54;8.27;;;3.28;;
45136;SDS011;30894;51.740;19.498;2023-07-08T02:58:20;5.22;;;2.40;;
45136;SDS011;30894;51.740;19.498;2023-07-08T03:00:54;7.40;;;2.83;;
45136;SDS011;30894;51.740;19.498;2023-07-08T03:03:24;4.80;;;2.70;;
45136;SDS011;30894;51.740;19.498;2023-07-08T03:05:57;7.78;;;2.65;;
45136;SDS011;30894;51.740;19.498;2023-07-08T03:08:26;4.80;;;2.83;;
45136;SDS011;30894;51.740;19.498;2023-07-08T03:10:55;4.13;;;2.63;;
45136;SDS011;30894;51.740;19.498;2023-07-08T03:13:23;4.93;;;2.95;;
45136;SDS011;30894;51.740;19.498;2023-07-08T03:15:50;4.63;;;2.58;;
45136;SDS011;30894;51.740;19.498;2023-07-08T03:18:24;6.85;;;2.58;;
45136;SDS011;30894;51.740;19.498;2023-07-08T03:20:52;6.45;;;2.75;;
45136;SDS011;30894;51.740;19.498;2023-07-08T03:23:21;5.00;;;2.65;;
45136;SDS011;30894;51.740;19.498;2023-07-08T03:25:49;7.28;;;2.72;;
45136;SDS011;30894;51.740;19.498;2023-07-08T03:28:16;6.22;;;2.83;;
45136;SDS011;30894;51.740;19.498;2023-07-08T03:30:42;10.88;;;3.38;;
45136;SDS011;30894;51.740;19.498;2023-07-08T03:33:10;11.00;;;3.47;;
45136;SDS011;30894;51.740;19.498;2023-07-08T03:35:37;15.13;;;3.17;;
45136;SDS011;30894;51.740;19.498;2023-07-08T03:38:06;8.25;;;2.88;;
45136;SDS011;30894;51.740;19.498;2023-07-08T03:40:32;7.28;;;3.45;;
45136;SDS011;30894;51.740;19.498;2023-07-08T03:42:58;6.38;;;3.35;;
45136;SDS011;30894;51.740;19.498;2023-07-08T03:45:25;7.95;;;3.47;;
45136;SDS011;30894;51.740;19.498;2023-07-08T03:47:51;5.47;;;2.80;;
45136;SDS011;30894;51.740;19.498;2023-07-08T03:50:20;7.80;;;2.88;;
45136;SDS011;30894;51.740;19.498;2023-07-08T03:52:49;4.80;;;3.00;;
45136;SDS011;30894;51.740;19.498;2023-07-08T03:55:18;5.60;;;3.22;;
45136;SDS011;30894;51.740;19.498;2023-07-08T03:57:44;6.20;;;3.03;;
45136;SDS011;30894;51.740;19.498;2023-07-08T04:00:11;5.70;;;2.80;;
45136;SDS011;30894;51.740;19.498;2023-07-08T04:02:38;6.63;;;3.22;;
45136;SDS011;30894;51.740;19.498;2023-07-08T04:05:06;6.13;;;3.05;;
45136;SDS011;30894;51.740;19.498;2023-07-08T04:07:33;6.03;;;2.78;;
45136;SDS011;30894;51.740;19.498;2023-07-08T04:10:02;4.63;;;2.70;;
45136;SDS011;30894;51.740;19.498;2023-07-08T04:12:27;6.57;;;2.90;;
45136;SDS011;30894;51.740;19.498;2023-07-08T04:14:54;5.85;;;2.75;;
45136;SDS011;30894;51.740;19.498;2023-07-08T04:17:20;6.05;;;3.33;;
45136;SDS011;30894;51.740;19.498;2023-07-08T04:19:49;5.30;;;3.33;;
45136;SDS011;30894;51.740;19.498;2023-07-08T04:22:15;5.40;;;2.95;;
45136;SDS011;30894;51.740;19.498;2023-07-08T04:24:42;4.88;;;3.47;;
45136;SDS011;30894;51.740;19.498;2023-07-08T04:27:15;5.55;;;2.97;;
45136;SDS011;30894;51.740;19.498;2023-07-08T04:29:43;9.77;;;3.55;;
45136;SDS011;30894;51.740;19.498;2023-07-08T04:32:09;5.50;;;3.35;;
45136;SDS011;30894;51.740;19.498;2023-07-08T04:34:36;7.18;;;3.58;;
45136;SDS011;30894;51.740;19.498;2023-07-08T04:37:01;9.13;;;3.78;;
45136;SDS011;30894;51.740;19.498;2023-07-08T04:39:30;6.72;;;3.45;;
45136;SDS011;30894;51.740;19.498;2023-07-08T04:41:56;5.68;;;3.53;;
45136;SDS011;30894;51.740;19.498;2023-07-08T04:44:22;6.75;;;3.63;;
45136;SDS011;30894;51.740;19.498;2023-07-08T04:46:53;4.93;;;3.28;;
45136;SDS011;30894;51.740;19.498;2023-07-08T04:49:22;5.53;;;3.72;;
45136;SDS011;30894;51.740;19.498;2023-07-08T04:51:49;4.57;;;3.28;;
45136;SDS011;30894;51.740;19.498;2023-07-08T04:54:17;5.80;;;3.13;;
45136;SDS011;30894;51.740;19.498;2023-07-08T04:56:44;5.75;;;3.10;;
45136;SDS011;30894;51.740;19.498;2023-07-08T04:59:17;6.03;;;3.20;;
45136;SDS011;30894;51.740;19.498;2023-07-08T05:01:45;4.72;;;3.22;;
45136;SDS011;30894;51.740;19.498;2023-07-08T05:04:15;5.10;;;3.13;;
45136;SDS011;30894;51.740;19.498;2023-07-08T05:06:44;5.38;;;3.13;;
45136;SDS011;30894;51.740;19.498;2023-07-08T05:09:10;4.22;;;2.97;;
45136;SDS011;30894;51.740;19.498;2023-07-08T05:11:36;6.15;;;2.75;;
45136;SDS011;30894;51.740;19.498;2023-07-08T05:14:03;3.88;;;2.67;;
45136;SDS011;30894;51.740;19.498;2023-07-08T05:16:32;3.05;;;2.28;;
45136;SDS011;30894;51.740;19.498;2023-07-08T05:19:01;4.57;;;2.45;;
45136;SDS011;30894;51.740;19.498;2023-07-08T05:21:29;3.85;;;2.30;;
45136;SDS011;30894;51.740;19.498;2023-07-08T05:24:02;2.67;;;1.90;;
45136;SDS011;30894;51.740;19.498;2023-07-08T05:26:30;3.47;;;2.25;;
45136;SDS011;30894;51.740;19.498;2023-07-08T05:28:57;3.08;;;1.85;;
45136;SDS011;30894;51.740;19.498;2023-07-08T05:31:23;3.90;;;1.75;;
45136;SDS011;30894;51.740;19.498;2023-07-08T05:33:50;2.85;;;1.88;;
45136;SDS011;30894;51.740;19.498;2023-07-08T05:36:16;5.68;;;2.03;;
45136;SDS011;30894;51.740;19.498;2023-07-08T05:38:42;3.03;;;1.98;;
45136;SDS011;30894;51.740;19.498;2023-07-08T05:41:08;3.05;;;1.90;;
45136;SDS011;30894;51.740;19.498;2023-07-08T05:43:34;3.17;;;1.77;;
45136;SDS011;30894;51.740;19.498;2023-07-08T05:46:01;3.90;;;1.40;;
45136;SDS011;30894;51.740;19.498;2023-07-08T05:48:27;3.05;;;1.67;;
45136;SDS011;30894;51.740;19.498;2023-07-08T05:50:53;4.25;;;1.55;;
45136;SDS011;30894;51.740;19.498;2023-07-08T05:53:22;2.75;;;1.42;;
45136;SDS011;30894;51.740;19.498;2023-07-08T05:55:48;1.73;;;1.15;;
45136;SDS011;30894;51.740;19.498;2023-07-08T05:58:15;1.58;;;1.15;;
45136;SDS011;30894;51.740;19.498;2023-07-08T06:00:42;1.63;;;1.30;;
45136;SDS011;30894;51.740;19.498;2023-07-08T06:03:09;3.05;;;1.30;;
45136;SDS011;30894;51.740;19.498;2023-07-08T06:05:36;1.27;;;1.17;;
45136;SDS011;30894;51.740;19.498;2023-07-08T06:08:03;2.13;;;1.27;;
45136;SDS011;30894;51.740;19.498;2023-07-08T06:10:31;1.95;;;1.08;;
45136;SDS011;30894;51.740;19.498;2023-07-08T06:12:57;2.15;;;1.40;;
45136;SDS011;30894;51.740;19.498;2023-07-08T06:15:23;2.40;;;1.20;;
45136;SDS011;30894;51.740;19.498;2023-07-08T06:17:49;1.98;;;1.10;;
45136;SDS011;30894;51.740;19.498;2023-07-08T06:20:16;1.40;;;1.30;;
45136;SDS011;30894;51.740;19.498;2023-07-08T06:22:45;1.88;;;1.15;;
45136;SDS011;30894;51.740;19.498;2023-07-08T06:25:11;1.10;;;1.00;;
45136;SDS011;30894;51.740;19.498;2023-07-08T06:27:37;4.75;;;1.30;;
45136;SDS011;30894;51.740;19.498;2023-07-08T06:30:03;2.22;;;1.30;;
45136;SDS011;30894;51.740;19.498;2023-07-08T06:32:30;1.90;;;1.05;;
45136;SDS011;30894;51.740;19.498;2023-07-08T06:34:56;1.23;;;1.10;;
45136;SDS011;30894;51.740;19.498;2023-07-08T06:37:22;9.05;;;1.05;;
45136;SDS011;30894;51.740;19.498;2023-07-08T06:39:48;1.63;;;1.02;;
45136;SDS011;30894;51.740;19.498;2023-07-08T06:42:14;1.15;;;0.95;;
45136;SDS011;30894;51.740;19.498;2023-07-08T06:44:40;1.15;;;0.95;;
45136;SDS011;30894;51.740;19.498;2023-07-08T06:47:11;2.13;;;1.10;;
45136;SDS011;30894;51.740;19.498;2023-07-08T06:49:37;1.73;;;0.80;;
45136;SDS011;30894;51.740;19.498;2023-07-08T06:52:03;1.10;;;1.00;;
45136;SDS011;30894;51.740;19.498;2023-07-08T06:54:29;1.65;;;1.02;;
45136;SDS011;30894;51.740;19.498;2023-07-08T06:56:57;1.20;;;1.10;;
45136;SDS011;30894;51.740;19.498;2023-07-08T06:59:32;1.10;;;1.00;;
45136;SDS011;30894;51.740;19.498;2023-07-08T07:01:59;4.10;;;0.98;;
45136;SDS011;30894;51.740;19.498;2023-07-08T07:04:25;2.08;;;1.00;;
45136;SDS011;30894;51.740;19.498;2023-07-08T07:06:51;2.08;;;1.05;;
45136;SDS011;30894;51.740;19.498;2023-07-08T07:09:17;1.95;;;1.05;;
45136;SDS011;30894;51.740;19.498;2023-07-08T07:11:43;2.95;;;0.90;;
45136;SDS011;30894;51.740;19.498;2023-07-08T07:14:10;1.67;;;0.90;;
45136;SDS011;30894;51.740;19.498;2023-07-08T07:16:36;2.08;;;1.33;;
45136;SDS011;30894;51.740;19.498;2023-07-08T07:19:02;1.80;;;0.82;;
45136;SDS011;30894;51.740;19.498;2023-07-08T07:21:28;1.80;;;1.30;;
45136;SDS011;30894;51.740;19.498;2023-07-08T07:23:54;1.23;;;1.00;;
45136;SDS011;30894;51.740;19.498;2023-07-08T07:26:20;1.90;;;1.10;;
45136;SDS011;30894;51.740;19.498;2023-07-08T07:28:46;1.45;;;1.00;;
45136;SDS011;30894;51.740;19.498;2023-07-08T07:31:12;2.70;;;1.10;;
45136;SDS011;30894;51.740;19.498;2023-07-08T07:33:38;2.08;;;1.10;;
45136;SDS011;30894;51.740;19.498;2023-07-08T07:36:04;1.00;;;0.77;;
45136;SDS011;30894;51.740;19.498;2023-07-08T07:38:32;2.30;;;1.20;;
45136;SDS011;30894;51.740;19.498;2023-07-08T07:40:59;2.83;;;1.45;;
45136;SDS011;30894;51.740;19.498;2023-07-08T07:43:33;3.00;;;1.40;;
45136;SDS011;30894;51.740;19.498;2023-07-08T07:45:59;1.42;;;0.90;;
45136;SDS011;30894;51.740;19.498;2023-07-08T07:48:25;2.05;;;1.30;;
45136;SDS011;30894;51.740;19.498;2023-07-08T07:50:52;1.90;;;1.30;;
45136;SDS011;30894;51.740;19.498;2023-07-08T07:53:18;1.30;;;1.20;;
45136;SDS011;30894;51.740;19.498;2023-07-08T07:55:54;1.05;;;0.90;;
45136;SDS011;30894;51.740;19.498;2023-07-08T07:58:25;1.52;;;1.20;;
45136;SDS011;30894;51.740;19.498;2023-07-08T08:00:53;3.85;;;1.30;;
45136;SDS011;30894;51.740;19.498;2023-07-08T08:03:19;4.97;;;1.17;;
45136;SDS011;30894;51.740;19.498;2023-07-08T08:05:47;1.20;;;1.10;;
45136;SDS011;30894;51.740;19.498;2023-07-08T08:08:16;2.35;;;1.20;;
45136;SDS011;30894;51.740;19.498;2023-07-08T08:10:47;1.73;;;1.10;;
45136;SDS011;30894;51.740;19.498;2023-07-08T08:13:18;2.28;;;1.20;;
45136;SDS011;30894;51.740;19.498;2023-07-08T08:15:47;2.75;;;1.10;;
45136;SDS011;30894;51.740;19.498;2023-07-08T08:18:13;3.72;;;1.30;;
45136;SDS011;30894;51.740;19.498;2023-07-08T08:20:39;1.20;;;1.10;;
45136;SDS011;30894;51.740;19.498;2023-07-08T08:23:06;2.47;;;1.20;;
45136;SDS011;30894;51.740;19.498;2023-07-08T08:25:33;1.55;;;1.10;;
45136;SDS011;30894;51.740;19.498;2023-07-08T08:27:59;1.95;;;1.08;;
45136;SDS011;30894;51.740;19.498;2023-07-08T08:30:26;1.63;;;0.90;;
45136;SDS011;30894;51.740;19.498;2023-07-08T08:32:51;1.38;;;1.27;;
45136;SDS011;30894;51.740;19.498;2023-07-08T08:35:18;1.40;;;1.13;;
45136;SDS011;30894;51.740;19.498;2023-07-08T08:37:45;1.45;;;1.02;;
45136;SDS011;30894;51.740;19.498;2023-07-08T08:40:12;2.47;;;1.20;;
45136;SDS011;30894;51.740;19.498;2023-07-08T08:42:43;2.90;;;1.00;;
45136;SDS011;30894;51.740;19.498;2023-07-08T08:45:19;2.58;;;1.48;;
45136;SDS011;30894;51.740;19.498;2023-07-08T08:47:47;2.38;;;1.20;;
45136;SDS011;30894;51.740;19.498;2023-07-08T08:50:30;3.33;;;1.17;;
45136;SDS011;30894;51.740;19.498;2023-07-08T08:53:15;4.47;;;1.35;;
45136;SDS011;30894;51.740;19.498;2023-07-08T08:55:49;1.63;;;1.05;;
45136;SDS011;30894;51.740;19.498;2023-07-08T09:01:12;1.25;;;1.02;;
45136;SDS011;30894;51.740;19.498;2023-07-08T09:06:32;1.80;;;1.15;;
45136;SDS011;30894;51.740;19.498;2023-07-08T09:09:02;2.05;;;1.33;;
45136;SDS011;30894;51.740;19.498;2023-07-08T09:11:44;1.33;;;1.20;;
45136;SDS011;30894;51.740;19.498;2023-07-08T09:14:28;2.08;;;1.13;;
45136;SDS011;30894;51.740;19.498;2023-07-08T09:19:55;1.88;;;1.25;;
45136;SDS011;30894;51.740;19.498;2023-07-08T09:22:51;2.67;;;1.20;;
45136;SDS011;30894;51.740;19.498;2023-07-08T09:25:35;1.25;;;1.10;;
45136;SDS011;30894;51.740;19.498;2023-07-08T09:28:07;1.52;;;1.13;;
45136;SDS011;30894;51.740;19.498;2023-07-08T09:30:33;1.80;;;1.02;;
45136;SDS011;30894;51.740;19.498;2023-07-08T09:33:02;1.80;;;1.02;;
45136;SDS011;30894;51.740;19.498;2023-07-08T09:35:37;2.08;;;1.15;;
45136;SDS011;30894;51.740;19.498;2023-07-08T09:38:13;1.30;;;1.10;;
45136;SDS011;30894;51.740;19.498;2023-07-08T09:40:47;1.40;;;1.02;;
45136;SDS011;30894;51.740;19.498;2023-07-08T09:46:03;1.77;;;1.05;;
45136;SDS011;30894;51.740;19.498;2023-07-08T09:48:34;0.98;;;0.98;;
45136;SDS011;30894;51.740;19.498;2023-07-08T09:51:03;2.00;;;0.98;;
45136;SDS011;30894;51.740;19.498;2023-07-08T09:53:33;3.17;;;1.27;;
45136;SDS011;30894;51.740;19.498;2023-07-08T09:56:00;1.40;;;1.30;;
45136;SDS011;30894;51.740;19.498;2023-07-08T09:58:35;2.00;;;0.98;;
45136;SDS011;30894;51.740;19.498;2023-07-08T10:01:09;2.15;;;1.10;;
45136;SDS011;30894;51.740;19.498;2023-07-08T10:03:48;1.88;;;1.13;;
45136;SDS011;30894;51.740;19.498;2023-07-08T10:06:18;1.70;;;1.60;;
45136;SDS011;30894;51.740;19.498;2023-07-08T10:08:54;3.90;;;1.30;;
45136;SDS011;30894;51.740;19.498;2023-07-08T10:11:37;1.33;;;1.00;;
45136;SDS011;30894;51.740;19.498;2023-07-08T10:17:07;2.45;;;1.23;;
45136;SDS011;30894;51.740;19.498;2023-07-08T10:19:40;1.23;;;1.13;;
45136;SDS011;30894;51.740;19.498;2023-07-08T10:31:06;1.50;;;1.20;;
45136;SDS011;30894;51.740;19.498;2023-07-08T10:36:51;2.22;;;1.20;;
45136;SDS011;30894;51.740;19.498;2023-07-08T10:39:37;2.75;;;1.05;;
45136;SDS011;30894;51.740;19.498;2023-07-08T10:45:10;1.40;;;1.08;;
45136;SDS011;30894;51.740;19.498;2023-07-08T10:47:57;1.38;;;1.23;;
45136;SDS011;30894;51.740;19.498;2023-07-08T10:56:22;2.10;;;1.30;;
45136;SDS011;30894;51.740;19.498;2023-07-08T10:59:26;3.63;;;1.20;;
45136;SDS011;30894;51.740;19.498;2023-07-08T11:05:04;1.73;;;1.27;;
45136;SDS011;30894;51.740;19.498;2023-07-08T11:07:52;1.17;;;1.08;;
45136;SDS011;30894;51.740;19.498;2023-07-08T11:10:36;1.75;;;1.05;;
45136;SDS011;30894;51.740;19.498;2023-07-08T11:13:23;1.17;;;1.08;;
45136;SDS011;30894;51.740;19.498;2023-07-08T11:16:08;1.35;;;1.17;;
45136;SDS011;30894;51.740;19.498;2023-07-08T11:21:32;1.88;;;1.30;;
45136;SDS011;30894;51.740;19.498;2023-07-08T11:24:22;4.00;;;1.10;;
45136;SDS011;30894;51.740;19.498;2023-07-08T11:30:02;5.03;;;1.33;;
45136;SDS011;30894;51.740;19.498;2023-07-08T11:32:37;2.80;;;1.20;;
45136;SDS011;30894;51.740;19.498;2023-07-08T11:35:06;1.20;;;1.10;;
45136;SDS011;30894;51.740;19.498;2023-07-08T11:37:42;1.65;;;0.90;;
45136;SDS011;30894;51.740;19.498;2023-07-08T11:40:30;1.95;;;1.17;;
45136;SDS011;30894;51.740;19.498;2023-07-08T11:43:01;1.92;;;1.15;;
45136;SDS011;30894;51.740;19.498;2023-07-08T11:48:10;1.27;;;1.17;;
45136;SDS011;30894;51.740;19.498;2023-07-08T11:50:42;2.47;;;1.30;;
45136;SDS011;30894;51.740;19.498;2023-07-08T11:53:31;1.40;;;1.30;;
45136;SDS011;30894;51.740;19.498;2023-07-08T11:59:25;3.47;;;1.48;;
45136;SDS011;30894;51.740;19.498;2023-07-08T12:07:02;1.50;;;1.20;;
45136;SDS011;30894;51.740;19.498;2023-07-08T12:10:13;2.38;;;1.15;;
45136;SDS011;30894;51.740;19.498;2023-07-08T12:12:44;1.20;;;1.10;;
45136;SDS011;30894;51.740;19.498;2023-07-08T12:15:17;1.50;;;1.23;;
45136;SDS011;30894;51.740;19.498;2023-07-08T12:18:15;3.80;;;1.20;;
45136;SDS011;30894;51.740;19.498;2023-07-08T12:20:51;4.28;;;1.10;;
45136;SDS011;30894;51.740;19.498;2023-07-08T12:23:21;1.27;;;1.13;;
45136;SDS011;30894;51.740;19.498;2023-07-08T12:25:51;3.10;;;1.40;;
45136;SDS011;30894;51.740;19.498;2023-07-08T12:28:19;2.08;;;1.20;;
45136;SDS011;30894;51.740;19.498;2023-07-08T12:30:47;1.35;;;1.10;;
45136;SDS011;30894;51.740;19.498;2023-07-08T12:33:32;1.23;;;1.13;;
45136;SDS011;30894;51.740;19.498;2023-07-08T12:36:01;1.58;;;1.10;;
45136;SDS011;30894;51.740;19.498;2023-07-08T12:38:30;2.38;;;1.25;;
45136;SDS011;30894;51.740;19.498;2023-07-08T12:41:10;1.30;;;1.10;;
45136;SDS011;30894;51.740;19.498;2023-07-08T12:43:42;3.80;;;1.30;;
45136;SDS011;30894;51.740;19.498;2023-07-08T12:46:11;4.57;;;2.00;;
45136;SDS011;30894;51.740;19.498;2023-07-08T12:48:38;1.50;;;1.40;;
45136;SDS011;30894;51.740;19.498;2023-07-08T12:51:06;1.20;;;1.13;;
45136;SDS011;30894;51.740;19.498;2023-07-08T12:53:43;3.33;;;1.20;;
45136;SDS011;30894;51.740;19.498;2023-07-08T12:56:10;1.95;;;1.20;;
45136;SDS011;30894;51.740;19.498;2023-07-08T12:58:38;1.80;;;1.40;;
45136;SDS011;30894;51.740;19.498;2023-07-08T13:01:15;2.88;;;1.40;;
45136;SDS011;30894;51.740;19.498;2023-07-08T13:03:45;1.87;;;1.20;;
45136;SDS011;30894;51.740;19.498;2023-07-08T13:08:46;1.30;;;1.20;;
45136;SDS011;30894;51.740;19.498;2023-07-08T13:11:14;2.28;;;1.30;;
45136;SDS011;30894;51.740;19.498;2023-07-08T13:13:48;1.73;;;1.45;;
45136;SDS011;30894;51.740;19.498;2023-07-08T13:16:16;1.42;;;1.08;;
45136;SDS011;30894;51.740;19.498;2023-07-08T13:18:43;3.03;;;1.10;;
45136;SDS011;30894;51.740;19.498;2023-07-08T13:21:12;2.92;;;1.10;;
45136;SDS011;30894;51.740;19.498;2023-07-08T13:23:40;1.30;;;1.20;;
45136;SDS011;30894;51.740;19.498;2023-07-08T13:26:15;1.40;;;1.30;;
45136;SDS011;30894;51.740;19.498;2023-07-08T13:28:44;3.38;;;1.40;;
45136;SDS011;30894;51.740;19.498;2023-07-08T13:31:17;1.67;;;1.10;;
45136;SDS011;30894;51.740;19.498;2023-07-08T13:33:47;2.53;;;1.40;;
45136;SDS011;30894;51.740;19.498;2023-07-08T13:36:17;3.05;;;1.30;;
45136;SDS011;30894;51.740;19.498;2023-07-08T13:38:51;1.67;;;1.27;;
45136;SDS011;30894;51.740;19.498;2023-07-08T13:41:19;4.32;;;1.58;;
45136;SDS011;30894;51.740;19.498;2023-07-08T13:43:50;3.55;;;1.30;;
45136;SDS011;30894;51.740;19.498;2023-07-08T13:46:33;1.23;;;1.10;;
45136;SDS011;30894;51.740;19.498;2023-07-08T13:49:38;1.67;;;1.38;;
45136;SDS011;30894;51.740;19.498;2023-07-08T13:54:44;1.88;;;1.33;;
45136;SDS011;30894;51.740;19.498;2023-07-08T13:57:31;2.97;;;1.40;;
45136;SDS011;30894;51.740;19.498;2023-07-08T14:00:00;1.52;;;1.30;;
45136;SDS011;30894;51.740;19.498;2023-07-08T14:02:29;1.38;;;1.10;;
45136;SDS011;30894;51.740;19.498;2023-07-08T14:04:57;1.13;;;1.00;;
45136;SDS011;30894;51.740;19.498;2023-07-08T14:07:27;1.48;;;1.27;;
45136;SDS011;30894;51.740;19.498;2023-07-08T14:09:56;1.60;;;1.45;;
45136;SDS011;30894;51.740;19.498;2023-07-08T14:12:23;3.78;;;1.40;;
45136;SDS011;30894;51.740;19.498;2023-07-08T14:14:50;1.25;;;1.15;;
45136;SDS011;30894;51.740;19.498;2023-07-08T14:17:22;1.48;;;1.38;;
45136;SDS011;30894;51.740;19.498;2023-07-08T14:19:52;3.45;;;1.23;;
45136;SDS011;30894;51.740;19.498;2023-07-08T14:24:54;3.17;;;1.40;;
45136;SDS011;30894;51.740;19.498;2023-07-08T14:27:24;1.60;;;1.10;;
45136;SDS011;30894;51.740;19.498;2023-07-08T14:29:51;1.88;;;1.10;;
45136;SDS011;30894;51.740;19.498;2023-07-08T14:32:22;2.77;;;1.23;;
45136;SDS011;30894;51.740;19.498;2023-07-08T14:34:56;1.65;;;1.30;;
45136;SDS011;30894;51.740;19.498;2023-07-08T14:37:36;3.30;;;1.40;;
45136;SDS011;30894;51.740;19.498;2023-07-08T14:40:15;0.90;;;0.90;;
45136;SDS011;30894;51.740;19.498;2023-07-08T14:43:01;1.42;;;1.30;;
45136;SDS011;30894;51.740;19.498;2023-07-08T14:45:41;1.30;;;1.20;;
45136;SDS011;30894;51.740;19.498;2023-07-08T14:48:12;1.30;;;0.90;;
45136;SDS011;30894;51.740;19.498;2023-07-08T14:50:39;4.38;;;1.30;;
45136;SDS011;30894;51.740;19.498;2023-07-08T14:53:06;1.17;;;1.00;;
45136;SDS011;30894;51.740;19.498;2023-07-08T14:55:32;2.00;;;1.20;;
45136;SDS011;30894;51.740;19.498;2023-07-08T14:57:59;2.08;;;1.10;;
45136;SDS011;30894;51.740;19.498;2023-07-08T15:00:29;3.95;;;1.65;;
45136;SDS011;30894;51.740;19.498;2023-07-08T15:02:56;3.10;;;1.30;;
45136;SDS011;30894;51.740;19.498;2023-07-08T15:05:26;1.73;;;1.30;;
45136;SDS011;30894;51.740;19.498;2023-07-08T15:07:58;1.63;;;1.38;;
45136;SDS011;30894;51.740;19.498;2023-07-08T15:10:26;2.00;;;1.30;;
45136;SDS011;30894;51.740;19.498;2023-07-08T15:12:55;2.08;;;1.30;;
45136;SDS011;30894;51.740;19.498;2023-07-08T15:15:26;1.55;;;1.33;;
45136;SDS011;30894;51.740;19.498;2023-07-08T15:17:56;1.67;;;1.38;;
45136;SDS011;30894;51.740;19.498;2023-07-08T15:20:23;1.23;;;1.13;;
45136;SDS011;30894;51.740;19.498;2023-07-08T15:22:51;2.08;;;1.30;;
45136;SDS011;30894;51.740;19.498;2023-07-08T15:25:17;1.63;;;1.20;;
45136;SDS011;30894;51.740;19.498;2023-07-08T15:27:48;1.42;;;1.23;;
45136;SDS011;30894;51.740;19.498;2023-07-08T15:30:19;5.18;;;1.75;;
45136;SDS011;30894;51.740;19.498;2023-07-08T15:32:49;2.15;;;1.30;;
45136;SDS011;30894;51.740;19.498;2023-07-08T15:35:18;1.85;;;1.33;;
45136;SDS011;30894;51.740;19.498;2023-07-08T15:37:51;1.40;;;1.30;;
45136;SDS011;30894;51.740;19.498;2023-07-08T15:40:18;1.40;;;1.30;;
45136;SDS011;30894;51.740;19.498;2023-07-08T15:42:51;2.45;;;1.30;;
45136;SDS011;30894;51.740;19.498;2023-07-08T15:45:24;2.70;;;0.95;;
45136;SDS011;30894;51.740;19.498;2023-07-08T15:47:54;1.33;;;1.20;;
45136;SDS011;30894;51.740;19.498;2023-07-08T15:50:21;3.30;;;1.30;;
45136;SDS011;30894;51.740;19.498;2023-07-08T15:52:51;1.85;;;1.40;;
45136;SDS011;30894;51.740;19.498;2023-07-08T15:55:20;2.33;;;1.50;;
45136;SDS011;30894;51.740;19.498;2023-07-08T15:57:54;3.90;;;1.42;;